Time;durP1;ratioP1;P1;durP2;ratioP2;P2;SDS_P1;SDS_P2;PMS_P1;PMS_P2;Temp;Humidity;BMP_temperature;BMP_pressure;BME280_temperature;BME280_humidity;BME280_pressure;Samples;Min_cycle;Max_cycle;Signal;HPM_P1;HPM_P2
2021/03/31 00:02:04;;;;;;;48.22;24.60;;;12.50;98.80;;;;;;5016841;28;20123;-82
2021/03/31 00:04:29;;;;;;;45.63;23.73;;;12.50;98.90;;;;;;5049725;28;20052;-81
2021/03/31 00:06:55;;;;;;;42.55;25.38;;;12.50;99.00;;;;;;5067644;28;20025;-83
2021/03/31 00:09:21;;;;;;;40.33;23.55;;;12.50;99.10;;;;;;5033491;28;20028;-84
2021/03/31 00:11:46;;;;;;;40.10;25.42;;;12.40;99.10;;;;;;5033411;28;20483;-82
2021/03/31 00:14:14;;;;;;;45.75;25.00;;;12.40;99.20;;;;;;5049839;28;20028;-86
2021/03/31 00:16:40;;;;;;;44.70;25.17;;;12.40;99.30;;;;;;5049581;28;20479;-82
2021/03/31 00:19:06;;;;;;;39.40;24.73;;;12.30;99.30;;;;;;5033089;28;20033;-82
2021/03/31 00:21:32;;;;;;;48.80;24.45;;;12.30;99.40;;;;;;5033020;28;20055;-83
2021/03/31 00:23:58;;;;;;;41.80;26.25;;;12.30;99.50;;;;;;5050103;28;20055;-83
2021/03/31 00:26:23;;;;;;;40.67;24.63;;;12.30;99.50;;;;;;5049593;28;20021;-83
2021/03/31 00:28:49;;;;;;;48.80;26.25;;;12.30;99.60;;;;;;5049793;28;20083;-85
2021/03/31 00:31:15;;;;;;;43.47;25.75;;;12.20;99.60;;;;;;5032931;28;20029;-84
2021/03/31 00:33:41;;;;;;;49.53;24.30;;;12.20;99.60;;;;;;5049586;28;20025;-84
2021/03/31 00:36:07;;;;;;;49.83;24.73;;;12.20;99.70;;;;;;5032876;28;20088;-83
2021/03/31 00:38:33;;;;;;;42.03;25.65;;;12.20;99.80;;;;;;5049350;28;20028;-84
2021/03/31 00:41:00;;;;;;;46.67;24.38;;;12.10;99.80;;;;;;5049538;28;20502;-84
2021/03/31 00:43:26;;;;;;;46.53;26.92;;;12.10;99.80;;;;;;5049719;28;20028;-84
2021/03/31 00:45:51;;;;;;;44.05;24.67;;;12.10;99.90;;;;;;5032832;28;20384;-84
2021/03/31 00:48:17;;;;;;;49.15;26.25;;;12.10;99.90;;;;;;5032887;28;20155;-85
2021/03/31 00:50:44;;;;;;;41.65;24.88;;;12.10;99.90;;;;;;5049326;28;20099;-83
2021/03/31 00:53:11;;;;;;;49.75;27.45;;;12.00;99.90;;;;;;5050293;28;20106;-83
2021/03/31 00:55:37;;;;;;;48.65;26.73;;;12.00;99.90;;;;;;5071229;28;20082;-84
2021/03/31 00:58:03;;;;;;;45.45;27.95;;;12.00;99.90;;;;;;5070964;28;20029;-83
2021/03/31 01:00:29;;;;;;;51.30;28.33;;;12.00;99.90;;;;;;5053504;28;20044;-83
2021/03/31 01:02:54;;;;;;;46.25;26.95;;;12.00;99.90;;;;;;5036454;28;20096;-84
2021/03/31 01:05:27;;;;;;;47.58;27.38;;;11.90;99.90;;;;;;5053057;28;20027;-83
2021/03/31 01:07:54;;;;;;;47.20;26.67;;;11.90;99.90;;;;;;5053165;28;20055;-82
2021/03/31 01:10:31;;;;;;;46.30;26.02;;;11.90;99.90;;;;;;5053288;28;20028;-85
2021/03/31 01:13:19;;;;;;;44.08;25.60;;;11.80;99.90;;;;;;5070832;28;20103;-83
2021/03/31 01:16:20;;;;;;;47.78;26.33;;;11.80;99.90;;;;;;5053058;28;20119;-82
2021/03/31 01:19:08;;;;;;;51.75;26.50;;;11.80;99.90;;;;;;5052742;28;20086;-82
2021/03/31 01:22:01;;;;;;;46.38;26.90;;;11.70;99.90;;;;;;5070765;28;20048;-84
2021/03/31 01:24:52;;;;;;;42.55;25.33;;;11.70;99.90;;;;;;5052921;28;20017;-82
2021/03/31 01:27:23;;;;;;;50.67;25.00;;;11.70;99.90;;;;;;5070639;28;20047;-82
2021/03/31 01:30:06;;;;;;;51.20;24.92;;;11.70;99.90;;;;;;5070398;28;20016;-83
2021/03/31 01:32:50;;;;;;;46.20;24.45;;;11.60;99.90;;;;;;5052526;28;20035;-84
2021/03/31 01:35:18;;;;;;;41.67;25.30;;;11.60;99.90;;;;;;5070386;28;20079;-82
2021/03/31 01:37:54;;;;;;;41.50;24.75;;;11.60;99.90;;;;;;5052483;28;20059;-81
2021/03/31 01:40:24;;;;;;;59.03;25.45;;;11.60;99.90;;;;;;5070377;28;20031;-84
2021/03/31 01:43:01;;;;;;;44.45;23.95;;;11.50;99.90;;;;;;5052317;28;20035;-83
2021/03/31 01:45:31;;;;;;;38.72;23.30;;;11.50;99.90;;;;;;5052329;28;20116;-83
2021/03/31 01:48:01;;;;;;;44.13;22.73;;;11.50;99.90;;;;;;5070195;28;20031;-82
2021/03/31 01:50:29;;;;;;;35.40;21.13;;;11.40;99.90;;;;;;5052052;28;20040;-81
2021/03/31 01:52:55;;;;;;;42.05;21.15;;;11.40;99.90;;;;;;5052164;28;20448;-82
2021/03/31 01:55:22;;;;;;;32.90;20.73;;;11.40;99.90;;;;;;5019019;28;20079;-84
2021/03/31 01:57:49;;;;;;;36.20;20.30;;;11.30;99.90;;;;;;5070219;28;20025;-82
2021/03/31 02:00:17;;;;;;;35.25;18.60;;;11.30;99.90;;;;;;5052153;28;20028;-82
2021/03/31 02:02:48;;;;;;;36.85;17.70;;;11.30;99.90;;;;;;5051952;28;20487;-83
2021/03/31 02:05:14;;;;;;;33.08;19.85;;;11.30;99.90;;;;;;5051642;28;20073;-82
2021/03/31 02:07:41;;;;;;;29.65;17.67;;;11.30;99.90;;;;;;5051782;28;20021;-82
2021/03/31 02:10:11;;;;;;;37.03;17.75;;;11.30;99.90;;;;;;5069736;28;20032;-83
2021/03/31 02:12:39;;;;;;;32.15;17.17;;;11.20;99.90;;;;;;5051857;28;20028;-84
2021/03/31 02:15:08;;;;;;;31.58;16.63;;;11.20;99.90;;;;;;5035005;28;20063;-83
2021/03/31 02:17:34;;;;;;;29.93;15.47;;;11.20;99.90;;;;;;5051616;28;20032;-83
2021/03/31 02:20:02;;;;;;;30.33;15.35;;;11.20;99.90;;;;;;5051833;28;20036;-83
2021/03/31 02:22:29;;;;;;;30.98;15.57;;;11.20;99.90;;;;;;5069308;28;20032;-84
2021/03/31 02:24:55;;;;;;;24.70;14.73;;;11.20;99.90;;;;;;5018401;28;20033;-82
2021/03/31 02:27:22;;;;;;;27.52;14.82;;;11.20;99.90;;;;;;5069735;28;20096;-81
2021/03/31 02:29:49;;;;;;;26.92;15.02;;;11.20;99.90;;;;;;5069317;28;20025;-84
2021/03/31 02:32:22;;;;;;;24.25;15.00;;;11.20;99.90;;;;;;5034810;28;20028;-81
2021/03/31 02:34:51;;;;;;;29.15;15.18;;;11.10;99.90;;;;;;5051365;28;20399;-81
2021/03/31 02:37:18;;;;;;;29.88;15.02;;;11.10;99.90;;;;;;5069245;28;20028;-81
2021/03/31 02:39:47;;;;;;;26.20;15.32;;;11.00;99.90;;;;;;5034826;28;20082;-82
2021/03/31 02:42:16;;;;;;;24.98;13.95;;;11.10;99.90;;;;;;5069058;28;20056;-81
2021/03/31 02:44:45;;;;;;;22.90;14.00;;;11.00;99.90;;;;;;5069138;28;20494;-84
2021/03/31 02:47:14;;;;;;;22.45;13.55;;;11.00;99.90;;;;;;5051254;28;20028;-85
2021/03/31 02:49:42;;;;;;;25.50;14.40;;;11.00;99.90;;;;;;5051012;28;20028;-83
2021/03/31 02:52:10;;;;;;;25.00;13.38;;;11.00;99.90;;;;;;5050898;28;20632;-83
2021/03/31 02:54:36;;;;;;;20.45;13.02;;;11.00;99.90;;;;;;5034394;28;20028;-83
2021/03/31 02:57:02;;;;;;;23.45;13.32;;;11.00;99.90;;;;;;5050893;28;20033;-83
2021/03/31 02:59:27;;;;;;;23.73;14.45;;;11.00;99.90;;;;;;5034491;28;20032;-84
2021/03/31 03:01:54;;;;;;;24.48;12.48;;;11.00;99.90;;;;;;5050873;28;20067;-83
2021/03/31 03:04:21;;;;;;;22.73;12.13;;;11.00;99.90;;;;;;5051038;28;20090;-82
2021/03/31 03:06:47;;;;;;;25.23;11.98;;;11.00;99.90;;;;;;5068711;28;20111;-84
2021/03/31 03:09:13;;;;;;;21.23;11.90;;;11.00;99.90;;;;;;5034260;28;20123;-83
2021/03/31 03:11:40;;;;;;;21.02;11.95;;;11.00;99.90;;;;;;5050869;28;20056;-83
2021/03/31 03:14:07;;;;;;;25.02;12.00;;;11.00;99.90;;;;;;5050779;28;20032;-85
2021/03/31 03:16:34;;;;;;;24.83;12.43;;;11.00;99.90;;;;;;5049991;28;20031;-82
2021/03/31 03:19:00;;;;;;;23.92;11.70;;;11.00;99.90;;;;;;5050574;28;20051;-82
2021/03/31 03:21:28;;;;;;;20.95;11.13;;;11.00;99.90;;;;;;5034026;28;20032;-83
2021/03/31 03:23:58;;;;;;;19.58;11.30;;;11.00;99.90;;;;;;5068466;28;20090;-84
2021/03/31 03:26:24;;;;;;;;;;;11.00;99.90;;;;;;5034148;28;20118;-82
2021/03/31 03:28:50;;;;;;;19.00;10.23;;;11.00;99.90;;;;;;5050272;28;19904;-85
2021/03/31 03:31:16;;;;;;;21.42;11.95;;;11.00;99.90;;;;;;5050443;28;20029;-82
2021/03/31 03:33:43;;;;;;;18.65;11.07;;;11.00;99.90;;;;;;5033959;28;20028;-82
2021/03/31 03:36:11;;;;;;;23.58;11.98;;;11.00;99.90;;;;;;5050316;28;20037;-82
2021/03/31 03:38:37;;;;;;;22.08;12.85;;;10.90;99.90;;;;;;5050111;28;20566;-84
2021/03/31 03:41:14;;;;;;;20.92;10.82;;;10.90;99.90;;;;;;5033464;28;20043;-83
2021/03/31 03:43:41;;;;;;;19.92;12.65;;;10.90;99.90;;;;;;5049991;28;20025;-83
2021/03/31 03:46:09;;;;;;;23.10;12.27;;;10.90;99.90;;;;;;5068052;28;20024;-81
2021/03/31 03:48:35;;;;;;;17.08;12.55;;;10.80;99.90;;;;;;5050068;28;20124;-82
2021/03/31 03:51:10;;;;;;;19.38;11.40;;;10.80;99.90;;;;;;5049856;28;20044;-84
2021/03/31 03:53:36;;;;;;;21.50;12.10;;;10.70;99.90;;;;;;5050011;28;20027;-83
2021/03/31 03:56:08;;;;;;;28.98;13.85;;;10.70;99.90;;;;;;5033228;28;20028;-81
2021/03/31 03:58:33;;;;;;;22.55;13.95;;;10.60;99.90;;;;;;5067853;28;20013;-84
2021/03/31 04:00:59;;;;;;;25.88;14.15;;;10.60;99.90;;;;;;5049862;28;20017;-85
2021/03/31 04:03:25;;;;;;;26.65;12.57;;;10.60;99.90;;;;;;5033271;28;20037;-82
2021/03/31 04:05:51;;;;;;;19.95;12.48;;;10.50;99.90;;;;;;5016739;28;20382;-84
2021/03/31 04:08:16;;;;;;;18.83;11.85;;;10.50;99.90;;;;;;5049673;28;20021;-83
2021/03/31 04:10:47;;;;;;;23.25;11.90;;;10.50;99.90;;;;;;5049949;28;20049;-83
2021/03/31 04:13:13;;;;;;;23.30;11.30;;;10.40;99.90;;;;;;5049832;28;20029;-82
2021/03/31 04:15:43;;;;;;;21.67;11.13;;;10.40;99.90;;;;;;5049845;28;20040;-81
2021/03/31 04:18:11;;;;;;;20.98;12.10;;;10.50;99.90;;;;;;5067690;28;20067;-82
2021/03/31 04:20:38;;;;;;;22.77;12.18;;;10.50;99.90;;;;;;5067435;28;20033;-81
2021/03/31 04:23:03;;;;;;;21.88;11.23;;;10.50;99.90;;;;;;5067531;28;20024;-83
2021/03/31 04:25:29;;;;;;;18.00;11.13;;;10.50;99.90;;;;;;5049383;28;20017;-83
2021/03/31 04:28:00;;;;;;;23.05;11.30;;;10.50;99.90;;;;;;5050450;28;20028;-83
2021/03/31 04:30:26;;;;;;;29.00;12.75;;;10.50;99.90;;;;;;5053734;28;20105;-82
2021/03/31 04:32:53;;;;;;;25.40;12.07;;;10.50;99.90;;;;;;5053776;28;20058;-82
2021/03/31 04:35:20;;;;;;;20.92;10.88;;;10.60;99.90;;;;;;5037251;28;20544;-83
2021/03/31 04:37:47;;;;;;;24.90;11.85;;;10.60;99.90;;;;;;5037032;28;20065;-85
2021/03/31 04:40:14;;;;;;;17.13;12.02;;;10.60;99.90;;;;;;5053722;28;20059;-84
2021/03/31 04:42:40;;;;;;;26.45;11.95;;;10.60;99.90;;;;;;5071203;28;20028;-84
2021/03/31 04:45:08;;;;;;;22.52;11.88;;;10.70;99.90;;;;;;5053345;28;20031;-85
2021/03/31 04:47:35;;;;;;;21.75;12.55;;;10.70;99.90;;;;;;5053669;28;20071;-84
2021/03/31 04:50:01;;;;;;;22.45;11.57;;;10.70;99.90;;;;;;5036609;28;20082;-84
2021/03/31 04:52:28;;;;;;;24.58;12.40;;;10.70;99.90;;;;;;5053252;28;20482;-82
2021/03/31 04:54:54;;;;;;;22.42;13.13;;;10.80;99.90;;;;;;5036615;28;20044;-81
2021/03/31 04:57:20;;;;;;;23.65;13.82;;;10.80;99.90;;;;;;5036484;28;20467;-84
2021/03/31 04:59:45;;;;;;;22.25;12.60;;;10.80;99.90;;;;;;5053498;28;20033;-82
2021/03/31 05:02:11;;;;;;;20.35;13.20;;;10.90;99.90;;;;;;5053025;28;20063;-83
2021/03/31 05:04:37;;;;;;;20.92;13.68;;;10.90;99.90;;;;;;5052942;28;20537;-83
2021/03/31 05:07:03;;;;;;;36.15;14.65;;;10.80;99.90;;;;;;5020116;28;20029;-81
2021/03/31 05:09:29;;;;;;;28.55;14.38;;;10.90;99.90;;;;;;5070852;28;20032;-82
2021/03/31 05:11:55;;;;;;;29.42;14.68;;;10.90;99.90;;;;;;5053226;28;20028;-83
2021/03/31 05:14:21;;;;;;;26.13;15.38;;;10.90;99.90;;;;;;5052891;28;20162;-82
2021/03/31 05:16:47;;;;;;;27.38;15.23;;;10.90;99.90;;;;;;5036371;28;20044;-84
2021/03/31 05:19:13;;;;;;;30.70;16.60;;;10.80;99.90;;;;;;5036264;28;20028;-84
2021/03/31 05:21:39;;;;;;;34.92;18.00;;;10.90;99.90;;;;;;5052825;28;20043;-82
2021/03/31 05:24:05;;;;;;;30.95;17.52;;;10.90;99.90;;;;;;5052709;28;20032;-82
2021/03/31 05:26:31;;;;;;;33.10;17.48;;;10.80;99.90;;;;;;5036112;28;20028;-82
2021/03/31 05:28:57;;;;;;;34.55;16.40;;;10.80;99.90;;;;;;5052688;28;20020;-83
2021/03/31 05:31:23;;;;;;;27.55;17.02;;;10.80;99.90;;;;;;5019444;28;20414;-84
2021/03/31 05:33:49;;;;;;;32.00;17.17;;;10.80;99.90;;;;;;5035856;28;20039;-82
2021/03/31 05:36:15;;;;;;;27.35;16.55;;;10.80;99.90;;;;;;5019216;28;20415;-82
2021/03/31 05:38:40;;;;;;;35.92;18.52;;;10.80;99.90;;;;;;5051758;28;20028;-82
2021/03/31 05:41:06;;;;;;;29.67;18.00;;;10.80;99.90;;;;;;5052326;28;20082;-82
2021/03/31 05:43:34;;;;;;;28.85;17.95;;;10.80;99.90;;;;;;5052361;28;20035;-81
2021/03/31 05:46:00;;;;;;;30.73;18.42;;;10.80;99.90;;;;;;5070088;28;20031;-83
2021/03/31 05:48:26;;;;;;;29.88;17.35;;;10.80;99.90;;;;;;5052152;28;20103;-83
2021/03/31 05:50:52;;;;;;;28.65;17.15;;;10.80;99.90;;;;;;5051850;28;20052;-82
2021/03/31 05:53:17;;;;;;;30.52;16.50;;;10.80;99.90;;;;;;5035468;28;20035;-83
2021/03/31 05:55:43;;;;;;;29.77;17.42;;;10.80;99.90;;;;;;5018926;28;20059;-81
2021/03/31 05:58:09;;;;;;;33.95;20.98;;;10.80;99.90;;;;;;5052169;28;20037;-84
2021/03/31 06:00:35;;;;;;;23.98;16.88;;;10.80;99.90;;;;;;5051733;28;20111;-81
2021/03/31 06:03:05;;;;;;;34.58;19.52;;;10.80;99.90;;;;;;5035287;28;20140;-83
2021/03/31 06:05:32;;;;;;;29.60;16.77;;;10.80;99.90;;;;;;5052051;28;20028;-82
2021/03/31 06:07:58;;;;;;;32.85;16.95;;;10.80;99.90;;;;;;5051865;28;20033;-82
2021/03/31 06:10:26;;;;;;;29.95;17.58;;;10.80;99.90;;;;;;5051602;28;20025;-83
2021/03/31 06:12:54;;;;;;;31.85;17.33;;;10.80;99.90;;;;;;5035203;28;20127;-83
2021/03/31 06:15:24;;;;;;;33.60;18.45;;;10.80;99.90;;;;;;5069607;28;20017;-82
2021/03/31 06:17:54;;;;;;;35.45;17.88;;;10.90;99.90;;;;;;5051553;28;20426;-85
2021/03/31 06:21:00;;;;;;;33.15;17.80;;;10.90;99.90;;;;;;5051389;28;20028;-85
2021/03/31 06:25:59;;;;;;;38.13;19.50;;;11.00;99.90;;;;;;5069477;28;20378;-81
2021/03/31 06:28:42;;;;;;;38.50;21.02;;;11.00;99.90;;;;;;5069346;28;20106;-82
2021/03/31 06:31:13;;;;;;;29.30;16.88;;;11.00;99.90;;;;;;5034741;28;20029;-83
2021/03/31 06:33:41;;;;;;;29.50;17.55;;;11.10;99.90;;;;;;5051779;28;20032;-82
2021/03/31 06:36:08;;;;;;;29.33;18.33;;;11.10;99.90;;;;;;5071489;28;20147;-82
2021/03/31 06:38:36;;;;;;;27.17;17.80;;;11.20;99.90;;;;;;5050952;28;20239;-82
2021/03/31 06:41:28;;;;;;;29.67;17.27;;;11.20;99.90;;;;;;5050717;28;20513;-83
2021/03/31 06:44:11;;;;;;;32.53;19.35;;;11.30;99.90;;;;;;5051031;28;20020;-82
2021/03/31 06:46:42;;;;;;;30.48;18.58;;;11.50;99.90;;;;;;5050668;28;20021;-82
2021/03/31 06:49:08;;;;;;;30.80;18.40;;;11.60;99.90;;;;;;5050586;28;20078;-81
2021/03/31 06:51:34;;;;;;;33.10;17.08;;;11.80;99.90;;;;;;5049870;28;20060;-83
2021/03/31 06:54:16;;;;;;;29.38;16.17;;;11.90;99.90;;;;;;5068868;28;20024;-84
2021/03/31 06:56:53;;;;;;;27.67;16.65;;;12.00;99.90;;;;;;5068347;28;20024;-81
2021/03/31 06:59:29;;;;;;;29.55;16.30;;;12.20;99.70;;;;;;5035294;28;20025;-84
2021/03/31 07:01:57;;;;;;;29.52;17.13;;;12.30;99.50;;;;;;5050848;28;20399;-82
2021/03/31 07:04:25;;;;;;;25.48;15.00;;;12.40;99.40;;;;;;5050729;28;20059;-81
2021/03/31 07:07:03;;;;;;;25.95;14.77;;;12.50;99.20;;;;;;5050924;28;20537;-82
2021/03/31 07:09:30;;;;;;;25.15;14.32;;;12.50;99.30;;;;;;5051024;28;20411;-84
2021/03/31 07:11:55;;;;;;;23.98;14.82;;;12.60;99.00;;;;;;5034182;28;20491;-82
2021/03/31 07:14:22;;;;;;;20.83;13.45;;;12.70;98.90;;;;;;5050790;28;20021;-84
2021/03/31 07:16:50;;;;;;;22.80;14.20;;;12.80;98.80;;;;;;5033729;28;20040;-82
2021/03/31 07:19:16;;;;;;;27.10;14.07;;;12.80;98.70;;;;;;5050305;28;20360;-85
2021/03/31 07:21:43;;;;;;;22.52;14.27;;;12.90;98.50;;;;;;5050033;28;20055;-84
2021/03/31 07:24:11;;;;;;;18.13;11.80;;;12.90;98.40;;;;;;5068066;28;20023;-86
2021/03/31 07:26:39;;;;;;;21.67;12.70;;;13.00;98.30;;;;;;5068186;28;20028;-85
2021/03/31 07:29:05;;;;;;;19.50;12.32;;;13.10;98.30;;;;;;5050245;28;20020;-82
2021/03/31 07:31:32;;;;;;;24.63;12.63;;;13.30;98.20;;;;;;5034189;28;20036;-84
2021/03/31 07:34:01;;;;;;;16.77;11.75;;;13.40;98.00;;;;;;5050572;28;20032;-82
2021/03/31 07:36:28;;;;;;;22.40;12.10;;;13.50;97.80;;;;;;5049961;28;20034;-81
2021/03/31 07:38:54;;;;;;;20.52;12.27;;;13.60;97.70;;;;;;5033734;28;20119;-82
2021/03/31 07:41:21;;;;;;;22.50;11.27;;;13.70;97.40;;;;;;5033926;28;20412;-82
2021/03/31 07:43:48;;;;;;;18.95;11.00;;;13.70;97.10;;;;;;5050064;28;20385;-84
2021/03/31 07:46:19;;;;;;;20.70;12.32;;;13.80;97.00;;;;;;5017015;28;20029;-82
2021/03/31 07:48:45;;;;;;;20.70;11.85;;;13.80;96.80;;;;;;5068019;28;20099;-82
2021/03/31 07:51:18;;;;;;;21.05;11.27;;;13.80;96.60;;;;;;5049721;28;20054;-83
2021/03/31 07:53:45;;;;;;;19.88;10.73;;;13.80;96.70;;;;;;5067703;28;20014;-83
2021/03/31 07:56:24;;;;;;;19.27;10.90;;;13.90;96.70;;;;;;5033197;28;20024;-81
2021/03/31 07:59:01;;;;;;;25.27;11.07;;;14.00;96.70;;;;;;5067667;28;20043;-83
2021/03/31 08:01:41;;;;;;;17.13;9.25;;;14.10;96.60;;;;;;5066880;28;20452;-84
2021/03/31 08:04:08;;;;;;;28.42;11.52;;;14.20;96.50;;;;;;5067445;28;20028;-82
2021/03/31 08:06:41;;;;;;;17.17;8.95;;;14.30;96.40;;;;;;5017537;28;20207;-83
2021/03/31 08:09:19;;;;;;;20.98;10.05;;;14.40;96.40;;;;;;5067162;28;20025;-82
2021/03/31 08:11:44;;;;;;;19.17;9.18;;;14.60;96.30;;;;;;5049793;28;20063;-83
2021/03/31 08:14:12;;;;;;;20.75;10.52;;;14.70;96.20;;;;;;5049510;28;20064;-85
2021/03/31 08:16:45;;;;;;;20.90;11.40;;;14.80;95.90;;;;;;5067260;28;20039;-81
2021/03/31 08:19:15;;;;;;;19.73;10.45;;;14.90;95.60;;;;;;5049069;28;20153;-83
2021/03/31 08:21:43;;;;;;;21.92;10.93;;;15.00;95.40;;;;;;5066620;28;20119;-83
2021/03/31 08:24:10;;;;;;;17.35;10.55;;;15.00;95.40;;;;;;5032777;28;20024;-84
2021/03/31 08:26:41;;;;;;;24.10;11.63;;;15.00;95.40;;;;;;5049509;28;20025;-84
2021/03/31 08:29:19;;;;;;;24.13;11.63;;;15.20;95.50;;;;;;5067435;28;20087;-84
2021/03/31 08:31:55;;;;;;;19.00;12.32;;;15.30;95.50;;;;;;5049637;28;20087;-84
2021/03/31 08:34:21;;;;;;;24.77;13.43;;;15.60;95.40;;;;;;5049211;28;20120;-83
2021/03/31 08:36:47;;;;;;;22.20;12.88;;;15.90;95.30;;;;;;5067143;28;20107;-83
2021/03/31 08:39:13;;;;;;;19.25;11.45;;;16.00;94.80;;;;;;5032312;28;20115;-84
2021/03/31 08:41:44;;;;;;;22.42;12.15;;;16.10;94.50;;;;;;5032712;28;20056;-82
2021/03/31 08:44:38;;;;;;;23.65;12.30;;;16.20;94.40;;;;;;5049679;28;20028;-81
2021/03/31 08:47:18;;;;;;;18.05;10.75;;;16.40;94.30;;;;;;5067641;28;20067;-84
2021/03/31 08:49:46;;;;;;;19.25;11.25;;;16.60;94.00;;;;;;5049122;28;20446;-83
2021/03/31 08:52:14;;;;;;;25.88;11.38;;;16.70;93.90;;;;;;5048867;28;20483;-82
2021/03/31 08:54:49;;;;;;;26.95;11.80;;;16.90;93.60;;;;;;5067038;28;20111;-83
2021/03/31 08:57:27;;;;;;;24.15;10.40;;;17.00;93.40;;;;;;5049211;28;20025;-82
2021/03/31 08:59:56;;;;;;;18.48;9.95;;;17.10;93.20;;;;;;5048217;28;20147;-84
2021/03/31 09:02:23;;;;;;;15.95;8.30;;;17.20;93.00;;;;;;5032698;28;20546;-82
2021/03/31 09:04:50;;;;;;;14.13;8.68;;;17.30;92.70;;;;;;5032075;28;20033;-81
2021/03/31 09:07:16;;;;;;;16.23;9.38;;;17.30;92.50;;;;;;5048942;28;20024;-82
2021/03/31 09:09:44;;;;;;;19.52;9.00;;;17.50;92.20;;;;;;5048866;28;20434;-82
2021/03/31 09:12:13;;;;;;;15.32;7.85;;;17.60;91.90;;;;;;5048682;28;20028;-82
2021/03/31 09:14:42;;;;;;;15.80;8.40;;;17.70;91.70;;;;;;5068559;28;20246;-83
2021/03/31 09:17:34;;;;;;;12.43;6.23;;;18.00;91.70;;;;;;5070412;28;20033;-82
2021/03/31 09:20:05;;;;;;;13.07;5.65;;;18.80;92.20;;;;;;5052041;28;20277;-84
2021/03/31 09:22:31;;;;;;;12.68;6.72;;;19.80;91.40;;;;;;5053015;28;20037;-83
2021/03/31 09:25:00;;;;;;;16.92;7.10;;;20.50;89.90;;;;;;5052128;28;20032;-83
2021/03/31 09:27:28;;;;;;;14.15;6.78;;;21.00;87.90;;;;;;5052006;28;20049;-83
2021/03/31 09:29:55;;;;;;;14.38;7.40;;;21.60;86.10;;;;;;5069981;28;20052;-83
2021/03/31 09:34:51;;;;;;;11.70;7.65;;;22.40;81.00;;;;;;5071159;28;20028;-85
2021/03/31 09:37:19;;;;;;;13.82;7.57;;;22.70;79.80;;;;;;5052302;28;20074;-84
2021/03/31 09:39:53;;;;;;;11.80;6.00;;;22.90;77.80;;;;;;5070219;28;20028;-83
2021/03/31 09:42:29;;;;;;;11.75;6.13;;;22.80;76.10;;;;;;5052205;28;20383;-82
2021/03/31 09:44:56;;;;;;;16.92;8.88;;;22.60;75.60;;;;;;5069172;28;20017;-81
2021/03/31 09:47:23;;;;;;;22.70;7.38;;;22.50;75.10;;;;;;5050700;28;20024;-82
2021/03/31 09:49:54;;;;;;;12.85;5.72;;;22.60;75.50;;;;;;5051649;28;20048;-82
2021/03/31 09:52:31;;;;;;;12.32;5.68;;;22.90;75.20;;;;;;5069027;28;20075;-83
2021/03/31 09:55:04;;;;;;;11.90;5.72;;;23.60;75.10;;;;;;5051387;28;20060;-83
2021/03/31 09:57:31;;;;;;;10.82;4.40;;;24.50;73.90;;;;;;5052107;28;20372;-83
2021/03/31 10:00:08;;;;;;;12.30;5.07;;;25.10;72.10;;;;;;5050873;28;20442;-84
2021/03/31 10:02:34;;;;;;;16.98;5.20;;;25.60;70.20;;;;;;5051100;28;20025;-84
2021/03/31 10:05:02;;;;;;;15.88;5.80;;;25.80;68.70;;;;;;5034171;28;20028;-84
2021/03/31 10:07:28;;;;;;;13.73;4.55;;;26.20;67.50;;;;;;5068399;28;20532;-84
2021/03/31 10:09:54;;;;;;;9.05;4.80;;;26.30;65.90;;;;;;5050981;28;20112;-82
2021/03/31 10:12:27;;;;;;;9.70;4.40;;;26.40;65.20;;;;;;5034534;28;20054;-84
2021/03/31 10:14:55;;;;;;;7.05;3.75;;;26.30;64.50;;;;;;5069248;28;20029;-80
2021/03/31 10:17:26;;;;;;;4.22;2.10;;;26.40;64.30;;;;;;5035025;28;20024;-82
2021/03/31 10:19:52;;;;;;;5.45;2.63;;;26.40;63.40;;;;;;5069127;28;20158;-84
2021/03/31 10:22:20;;;;;;;6.45;3.60;;;26.10;62.60;;;;;;5050192;28;20033;-74
2021/03/31 10:24:48;;;;;;;9.15;3.42;;;25.70;62.40;;;;;;5069266;28;20126;-82
2021/03/31 10:27:18;;;;;;;9.35;2.80;;;25.40;63.10;;;;;;5051158;28;20017;-83
2021/03/31 10:29:51;;;;;;;7.50;1.95;;;25.70;63.70;;;;;;5068790;28;20024;-83
2021/03/31 10:32:27;;;;;;;5.07;2.75;;;26.50;63.30;;;;;;5034698;28;20056;-85
2021/03/31 10:34:54;;;;;;;6.90;2.05;;;27.10;62.50;;;;;;5034399;28;20021;-83
2021/03/31 10:48:18;;;;;;;2.65;1.40;;;30.60;58.30;;;;;;5068337;28;20438;-84
2021/03/31 10:50:54;;;;;;;5.53;1.83;;;30.90;57.00;;;;;;5051439;28;20069;-83
2021/03/31 10:53:35;;;;;;;4.18;1.63;;;31.10;55.90;;;;;;5051914;28;20416;-84
2021/03/31 10:56:03;;;;;;;3.90;1.50;;;31.40;54.60;;;;;;5067532;28;20029;-84
2021/03/31 10:58:28;;;;;;;5.00;1.80;;;31.70;54.60;;;;;;5050274;28;20063;-86
2021/03/31 11:00:55;;;;;;;7.03;1.98;;;32.20;54.10;;;;;;5049606;28;20511;-85
2021/03/31 11:03:22;;;;;;;7.78;2.28;;;32.50;52.80;;;;;;5049894;28;20394;-83
2021/03/31 11:05:49;;;;;;;9.88;2.55;;;32.50;51.80;;;;;;5049887;28;20028;-86
2021/03/31 11:08:14;;;;;;;5.40;1.90;;;32.80;51.80;;;;;;5068025;28;20108;-86
2021/03/31 11:10:40;;;;;;;3.22;1.40;;;32.80;50.80;;;;;;5033640;28;20124;-84
2021/03/31 11:13:06;;;;;;;4.72;1.45;;;32.40;50.00;;;;;;5067691;28;20020;-84
2021/03/31 11:15:32;;;;;;;3.60;1.58;;;31.90;49.60;;;;;;5033094;28;20028;-83
2021/03/31 11:26:04;;;;;;;4.43;0.95;;;28.70;50.80;;;;;;5039079;28;20230;-82
2021/03/31 11:28:30;;;;;;;8.07;1.40;;;27.90;51.40;;;;;;5016902;28;20123;-85
2021/03/31 11:30:56;;;;;;;2.58;0.90;;;27.30;52.10;;;;;;5049742;28;20029;-84
2021/03/31 11:33:23;;;;;;;3.30;1.13;;;27.10;52.80;;;;;;5033848;28;20412;-84
2021/03/31 11:35:52;;;;;;;7.10;1.20;;;27.30;53.20;;;;;;5067401;28;20032;-85
2021/03/31 11:38:18;;;;;;;2.92;1.70;;;27.80;53.60;;;;;;5048423;28;20043;-83
2021/03/31 11:40:45;;;;;;;5.10;1.73;;;28.40;53.70;;;;;;5048527;28;20506;-84
2021/03/31 11:43:12;;;;;;;5.45;1.88;;;28.80;52.90;;;;;;5048856;28;20155;-85
2021/03/31 11:45:40;;;;;;;4.18;1.67;;;28.70;52.50;;;;;;5017051;28;20492;-85
2021/03/31 11:48:06;;;;;;;4.93;1.83;;;28.20;52.20;;;;;;5050436;28;20028;-83
2021/03/31 11:50:32;;;;;;;5.72;2.15;;;27.50;53.10;;;;;;5032953;28;20021;-86
2021/03/31 11:52:57;;;;;;;4.30;1.83;;;27.40;54.20;;;;;;5032006;28;20572;-83
2021/03/31 11:55:24;;;;;;;3.08;1.80;;;28.00;54.40;;;;;;5033139;28;20063;-85
2021/03/31 11:57:50;;;;;;;3.72;1.65;;;27.80;53.70;;;;;;5033288;28;20036;-84
2021/03/31 12:00:18;;;;;;;3.72;1.70;;;28.00;54.10;;;;;;5050105;28;20031;-82
2021/03/31 12:02:44;;;;;;;5.70;2.47;;;28.60;54.00;;;;;;5066801;28;20074;-85
2021/03/31 12:05:11;;;;;;;6.30;2.75;;;29.60;53.70;;;;;;5031807;28;20029;-87
2021/03/31 12:07:37;;;;;;;4.70;2.03;;;30.40;52.60;;;;;;5016012;28;20032;-84
2021/03/31 12:10:07;;;;;;;4.25;2.30;;;31.00;52.10;;;;;;5048586;28;20074;-83
2021/03/31 12:12:37;;;;;;;4.80;2.50;;;31.40;51.10;;;;;;5067758;28;20054;-81
2021/03/31 12:15:05;;;;;;;7.15;2.60;;;31.60;50.20;;;;;;5068572;28;20067;-84
2021/03/31 12:17:30;;;;;;;6.13;2.63;;;31.00;49.90;;;;;;5050543;28;20051;-82
2021/03/31 12:19:56;;;;;;;5.72;2.22;;;30.70;50.40;;;;;;5049915;28;20021;-84
2021/03/31 12:22:22;;;;;;;6.35;2.35;;;30.40;50.10;;;;;;5033625;28;20123;-85
2021/03/31 12:24:48;;;;;;;3.92;1.90;;;29.90;49.70;;;;;;5049728;28;20028;-84
2021/03/31 12:27:17;;;;;;;5.05;2.75;;;29.30;49.90;;;;;;5033115;28;20033;-84
2021/03/31 12:29:43;;;;;;;2.05;1.50;;;28.90;50.40;;;;;;5049316;28;20028;-85
2021/03/31 12:32:19;;;;;;;4.90;2.00;;;28.90;50.60;;;;;;5031653;28;20483;-85
2021/03/31 12:34:45;;;;;;;8.32;2.40;;;28.90;50.30;;;;;;5066636;28;20562;-85
2021/03/31 12:37:12;;;;;;;6.32;2.25;;;28.60;50.40;;;;;;5016336;28;20063;-85
2021/03/31 12:39:39;;;;;;;4.03;2.00;;;28.20;50.70;;;;;;5031848;28;20497;-82
2021/03/31 12:42:05;;;;;;;9.43;2.50;;;28.00;50.80;;;;;;5030948;28;20064;-85
2021/03/31 12:44:31;;;;;;;7.88;2.72;;;27.60;50.60;;;;;;5066357;28;20032;-83
2021/03/31 12:46:57;;;;;;;4.95;2.65;;;27.00;51.00;;;;;;5049352;28;20029;-86
2021/03/31 12:49:22;;;;;;;4.07;2.45;;;26.30;51.50;;;;;;5017663;28;20082;-85
2021/03/31 12:51:54;;;;;;;5.72;2.85;;;25.50;52.40;;;;;;5053353;28;20056;-83
2021/03/31 12:56:48;;;;;;;8.32;2.97;;;24.30;54.00;;;;;;5037325;28;20037;-83
2021/03/31 12:59:14;;;;;;;7.03;2.90;;;23.80;54.90;;;;;;5039545;28;20033;-83
2021/03/31 13:01:40;;;;;;;7.53;2.45;;;23.50;55.80;;;;;;5037517;28;20045;-85
2021/03/31 13:04:06;;;;;;;5.70;2.60;;;23.30;56.20;;;;;;5036257;28;20086;-85
2021/03/31 13:06:34;;;;;;;9.00;3.10;;;23.20;56.50;;;;;;5022968;28;20506;-83
2021/03/31 13:09:00;;;;;;;13.80;2.65;;;23.10;56.70;;;;;;5054982;28;20028;-84